sensor_id;sensor_type;location;lat;lon;timestamp;P1;durP1;ratioP1;P2;durP2;ratioP2
75649;SDS011;64245;51.282;22.494;2022-10-16T00:01:41;23.35;;;13.90;;
75649;SDS011;64245;51.282;22.494;2022-10-16T00:04:16;25.33;;;14.63;;
75649;SDS011;64245;51.282;22.494;2022-10-16T00:06:47;21.23;;;13.20;;
75649;SDS011;64245;51.282;22.494;2022-10-16T00:09:13;23.05;;;13.25;;
75649;SDS011;64245;51.282;22.494;2022-10-16T00:11:39;23.00;;;13.57;;
75649;SDS011;64245;51.282;22.494;2022-10-16T00:14:07;25.08;;;14.05;;
75649;SDS011;64245;51.282;22.494;2022-10-16T00:16:38;23.35;;;13.32;;
75649;SDS011;64245;51.282;22.494;2022-10-16T00:19:04;21.70;;;12.77;;
75649;SDS011;64245;51.282;22.494;2022-10-16T00:21:30;20.85;;;12.55;;
75649;SDS011;64245;51.282;22.494;2022-10-16T00:24:00;22.92;;;12.88;;
75649;SDS011;64245;51.282;22.494;2022-10-16T00:26:29;23.60;;;14.70;;
75649;SDS011;64245;51.282;22.494;2022-10-16T00:28:59;21.00;;;13.48;;
75649;SDS011;64245;51.282;22.494;2022-10-16T00:31:27;22.08;;;13.55;;
75649;SDS011;64245;51.282;22.494;2022-10-16T00:33:53;23.95;;;13.45;;
75649;SDS011;64245;51.282;22.494;2022-10-16T00:36:22;21.15;;;12.85;;
75649;SDS011;64245;51.282;22.494;2022-10-16T00:38:54;24.15;;;14.40;;
75649;SDS011;64245;51.282;22.494;2022-10-16T00:41:26;22.48;;;13.38;;
75649;SDS011;64245;51.282;22.494;2022-10-16T00:43:54;24.00;;;14.38;;
75649;SDS011;64245;51.282;22.494;2022-10-16T00:46:47;22.65;;;13.07;;
75649;SDS011;64245;51.282;22.494;2022-10-16T00:49:16;29.58;;;14.40;;
75649;SDS011;64245;51.282;22.494;2022-10-16T00:51:47;23.80;;;13.35;;
75649;SDS011;64245;51.282;22.494;2022-10-16T00:54:23;24.67;;;14.52;;
75649;SDS011;64245;51.282;22.494;2022-10-16T00:56:51;22.60;;;13.50;;
75649;SDS011;64245;51.282;22.494;2022-10-16T00:59:30;22.75;;;13.07;;
75649;SDS011;64245;51.282;22.494;2022-10-16T01:02:08;26.50;;;14.25;;
75649;SDS011;64245;51.282;22.494;2022-10-16T01:04:43;22.25;;;13.02;;
75649;SDS011;64245;51.282;22.494;2022-10-16T01:12:46;22.20;;;14.00;;
75649;SDS011;64245;51.282;22.494;2022-10-16T01:15:32;23.83;;;14.35;;
75649;SDS011;64245;51.282;22.494;2022-10-16T01:20:54;29.50;;;14.85;;
75649;SDS011;64245;51.282;22.494;2022-10-16T01:23:36;25.42;;;14.40;;
75649;SDS011;64245;51.282;22.494;2022-10-16T01:29:28;24.65;;;13.95;;
75649;SDS011;64245;51.282;22.494;2022-10-16T01:32:01;25.25;;;13.70;;
75649;SDS011;64245;51.282;22.494;2022-10-16T01:34:37;23.15;;;14.07;;
75649;SDS011;64245;51.282;22.494;2022-10-16T01:37:20;23.33;;;13.43;;
75649;SDS011;64245;51.282;22.494;2022-10-16T01:40:12;26.85;;;13.43;;
75649;SDS011;64245;51.282;22.494;2022-10-16T01:42:52;26.40;;;13.95;;
75649;SDS011;64245;51.282;22.494;2022-10-16T01:45:24;25.08;;;12.75;;
75649;SDS011;64245;51.282;22.494;2022-10-16T01:47:53;23.92;;;14.20;;
75649;SDS011;64245;51.282;22.494;2022-10-16T01:50:19;24.98;;;15.32;;
75649;SDS011;64245;51.282;22.494;2022-10-16T01:52:48;27.98;;;14.93;;
75649;SDS011;64245;51.282;22.494;2022-10-16T01:55:30;26.98;;;15.57;;
75649;SDS011;64245;51.282;22.494;2022-10-16T01:58:01;26.80;;;15.13;;
75649;SDS011;64245;51.282;22.494;2022-10-16T02:00:42;25.27;;;15.00;;
75649;SDS011;64245;51.282;22.494;2022-10-16T02:03:16;28.88;;;16.27;;
75649;SDS011;64245;51.282;22.494;2022-10-16T02:05:49;24.90;;;15.15;;
75649;SDS011;64245;51.282;22.494;2022-10-16T02:08:22;26.25;;;15.10;;
75649;SDS011;64245;51.282;22.494;2022-10-16T02:11:03;25.70;;;15.02;;
75649;SDS011;64245;51.282;22.494;2022-10-16T02:13:44;25.90;;;14.63;;
75649;SDS011;64245;51.282;22.494;2022-10-16T02:16:12;25.50;;;14.68;;
75649;SDS011;64245;51.282;22.494;2022-10-16T02:18:40;26.02;;;13.95;;
75649;SDS011;64245;51.282;22.494;2022-10-16T02:21:14;26.75;;;15.00;;
75649;SDS011;64245;51.282;22.494;2022-10-16T02:23:54;27.40;;;14.45;;
75649;SDS011;64245;51.282;22.494;2022-10-16T02:29:29;27.23;;;15.45;;
75649;SDS011;64245;51.282;22.494;2022-10-16T02:32:01;29.48;;;15.55;;
75649;SDS011;64245;51.282;22.494;2022-10-16T02:34:32;29.73;;;15.88;;
75649;SDS011;64245;51.282;22.494;2022-10-16T02:36:59;26.70;;;14.48;;
75649;SDS011;64245;51.282;22.494;2022-10-16T02:39:34;31.65;;;16.15;;
75649;SDS011;64245;51.282;22.494;2022-10-16T02:42:10;31.77;;;16.15;;
75649;SDS011;64245;51.282;22.494;2022-10-16T02:44:42;25.25;;;15.27;;
75649;SDS011;64245;51.282;22.494;2022-10-16T02:47:11;29.98;;;16.35;;
75649;SDS011;64245;51.282;22.494;2022-10-16T02:49:40;26.90;;;14.75;;
75649;SDS011;64245;51.282;22.494;2022-10-16T02:52:09;26.77;;;16.55;;
75649;SDS011;64245;51.282;22.494;2022-10-16T02:54:38;29.85;;;16.83;;
75649;SDS011;64245;51.282;22.494;2022-10-16T02:57:07;29.98;;;15.10;;
75649;SDS011;64245;51.282;22.494;2022-10-16T02:59:36;29.98;;;15.13;;
75649;SDS011;64245;51.282;22.494;2022-10-16T03:02:02;28.45;;;15.98;;
75649;SDS011;64245;51.282;22.494;2022-10-16T03:04:33;27.60;;;15.73;;
75649;SDS011;64245;51.282;22.494;2022-10-16T03:06:59;30.48;;;16.00;;
75649;SDS011;64245;51.282;22.494;2022-10-16T03:09:25;31.02;;;16.60;;
75649;SDS011;64245;51.282;22.494;2022-10-16T03:11:54;32.50;;;17.13;;
75649;SDS011;64245;51.282;22.494;2022-10-16T03:14:20;30.98;;;15.90;;
75649;SDS011;64245;51.282;22.494;2022-10-16T03:16:50;28.92;;;15.63;;
75649;SDS011;64245;51.282;22.494;2022-10-16T03:19:19;30.33;;;16.30;;
75649;SDS011;64245;51.282;22.494;2022-10-16T03:21:48;29.45;;;15.50;;
75649;SDS011;64245;51.282;22.494;2022-10-16T03:24:14;27.80;;;16.33;;
75649;SDS011;64245;51.282;22.494;2022-10-16T03:26:40;28.00;;;15.38;;
75649;SDS011;64245;51.282;22.494;2022-10-16T03:29:06;29.58;;;14.70;;
75649;SDS011;64245;51.282;22.494;2022-10-16T03:31:32;28.70;;;14.35;;
75649;SDS011;64245;51.282;22.494;2022-10-16T03:34:02;28.50;;;15.80;;
75649;SDS011;64245;51.282;22.494;2022-10-16T03:36:28;27.85;;;15.70;;
75649;SDS011;64245;51.282;22.494;2022-10-16T03:38:54;28.27;;;15.50;;
75649;SDS011;64245;51.282;22.494;2022-10-16T03:41:19;33.38;;;16.45;;
75649;SDS011;64245;51.282;22.494;2022-10-16T03:43:45;31.63;;;17.38;;
75649;SDS011;64245;51.282;22.494;2022-10-16T03:46:20;33.70;;;18.60;;
75649;SDS011;64245;51.282;22.494;2022-10-16T03:48:49;31.65;;;17.05;;
75649;SDS011;64245;51.282;22.494;2022-10-16T03:51:14;27.42;;;16.05;;
75649;SDS011;64245;51.282;22.494;2022-10-16T03:53:41;30.58;;;16.08;;
75649;SDS011;64245;51.282;22.494;2022-10-16T03:56:06;28.35;;;15.30;;
75649;SDS011;64245;51.282;22.494;2022-10-16T03:58:32;27.48;;;15.65;;
75649;SDS011;64245;51.282;22.494;2022-10-16T04:00:59;29.00;;;16.45;;
75649;SDS011;64245;51.282;22.494;2022-10-16T04:03:30;30.77;;;16.25;;
75649;SDS011;64245;51.282;22.494;2022-10-16T04:06:01;29.77;;;17.00;;
75649;SDS011;64245;51.282;22.494;2022-10-16T04:08:27;26.75;;;15.57;;
75649;SDS011;64245;51.282;22.494;2022-10-16T04:10:53;28.25;;;16.23;;
75649;SDS011;64245;51.282;22.494;2022-10-16T04:13:31;28.70;;;16.73;;
75649;SDS011;64245;51.282;22.494;2022-10-16T04:16:00;28.33;;;16.02;;
75649;SDS011;64245;51.282;22.494;2022-10-16T04:18:31;25.48;;;13.82;;
75649;SDS011;64245;51.282;22.494;2022-10-16T04:21:01;27.48;;;15.18;;
75649;SDS011;64245;51.282;22.494;2022-10-16T04:23:29;28.73;;;16.17;;
75649;SDS011;64245;51.282;22.494;2022-10-16T04:25:59;25.48;;;15.68;;
75649;SDS011;64245;51.282;22.494;2022-10-16T04:28:26;25.83;;;14.95;;
75649;SDS011;64245;51.282;22.494;2022-10-16T04:30:58;24.52;;;13.60;;
75649;SDS011;64245;51.282;22.494;2022-10-16T04:33:23;25.52;;;14.88;;
75649;SDS011;64245;51.282;22.494;2022-10-16T04:35:55;23.70;;;13.80;;
75649;SDS011;64245;51.282;22.494;2022-10-16T04:38:23;26.05;;;14.40;;
75649;SDS011;64245;51.282;22.494;2022-10-16T04:40:48;22.88;;;14.02;;
75649;SDS011;64245;51.282;22.494;2022-10-16T04:43:14;26.00;;;13.73;;
75649;SDS011;64245;51.282;22.494;2022-10-16T04:45:40;21.75;;;13.95;;
75649;SDS011;64245;51.282;22.494;2022-10-16T04:48:06;23.88;;;14.20;;
75649;SDS011;64245;51.282;22.494;2022-10-16T04:50:31;26.05;;;13.82;;
75649;SDS011;64245;51.282;22.494;2022-10-16T04:52:58;22.40;;;12.90;;
75649;SDS011;64245;51.282;22.494;2022-10-16T04:55:32;23.45;;;13.60;;
75649;SDS011;64245;51.282;22.494;2022-10-16T04:57:58;24.40;;;14.38;;
75649;SDS011;64245;51.282;22.494;2022-10-16T05:00:24;20.65;;;12.30;;
75649;SDS011;64245;51.282;22.494;2022-10-16T05:02:50;20.55;;;13.30;;
75649;SDS011;64245;51.282;22.494;2022-10-16T05:05:16;21.77;;;12.65;;
75649;SDS011;64245;51.282;22.494;2022-10-16T05:07:48;23.67;;;13.57;;
75649;SDS011;64245;51.282;22.494;2022-10-16T05:10:18;24.42;;;13.25;;
75649;SDS011;64245;51.282;22.494;2022-10-16T05:12:47;24.92;;;13.95;;
75649;SDS011;64245;51.282;22.494;2022-10-16T05:15:13;21.38;;;12.77;;
75649;SDS011;64245;51.282;22.494;2022-10-16T05:17:39;20.48;;;12.77;;
75649;SDS011;64245;51.282;22.494;2022-10-16T05:20:04;20.42;;;13.35;;
75649;SDS011;64245;51.282;22.494;2022-10-16T05:22:31;19.55;;;11.98;;
75649;SDS011;64245;51.282;22.494;2022-10-16T05:24:57;21.05;;;13.00;;
75649;SDS011;64245;51.282;22.494;2022-10-16T05:27:23;19.98;;;12.50;;
75649;SDS011;64245;51.282;22.494;2022-10-16T05:29:49;23.90;;;13.25;;
75649;SDS011;64245;51.282;22.494;2022-10-16T05:32:15;22.00;;;12.88;;
75649;SDS011;64245;51.282;22.494;2022-10-16T05:34:43;20.27;;;13.45;;
75649;SDS011;64245;51.282;22.494;2022-10-16T05:37:13;22.98;;;12.82;;
75649;SDS011;64245;51.282;22.494;2022-10-16T05:39:43;24.55;;;12.05;;
75649;SDS011;64245;51.282;22.494;2022-10-16T05:42:10;22.58;;;12.20;;
75649;SDS011;64245;51.282;22.494;2022-10-16T05:44:35;18.05;;;11.95;;
75649;SDS011;64245;51.282;22.494;2022-10-16T05:47:03;18.05;;;12.50;;
75649;SDS011;64245;51.282;22.494;2022-10-16T05:49:38;21.27;;;13.10;;
75649;SDS011;64245;51.282;22.494;2022-10-16T05:52:04;19.42;;;12.05;;
75649;SDS011;64245;51.282;22.494;2022-10-16T05:54:30;23.85;;;12.95;;
75649;SDS011;64245;51.282;22.494;2022-10-16T05:56:55;20.13;;;12.35;;
75649;SDS011;64245;51.282;22.494;2022-10-16T05:59:21;20.80;;;11.30;;
75649;SDS011;64245;51.282;22.494;2022-10-16T06:01:47;20.23;;;12.10;;
75649;SDS011;64245;51.282;22.494;2022-10-16T06:04:13;16.48;;;11.23;;
75649;SDS011;64245;51.282;22.494;2022-10-16T06:06:39;18.48;;;11.73;;
75649;SDS011;64245;51.282;22.494;2022-10-16T06:09:12;17.60;;;11.85;;
75649;SDS011;64245;51.282;22.494;2022-10-16T06:11:38;22.05;;;11.95;;
75649;SDS011;64245;51.282;22.494;2022-10-16T06:14:05;19.20;;;11.23;;
75649;SDS011;64245;51.282;22.494;2022-10-16T06:16:39;19.48;;;11.90;;
75649;SDS011;64245;51.282;22.494;2022-10-16T06:19:05;16.85;;;11.32;;
75649;SDS011;64245;51.282;22.494;2022-10-16T06:21:39;18.63;;;12.20;;
75649;SDS011;64245;51.282;22.494;2022-10-16T06:24:09;19.58;;;11.80;;
75649;SDS011;64245;51.282;22.494;2022-10-16T06:26:36;18.27;;;11.57;;
75649;SDS011;64245;51.282;22.494;2022-10-16T06:29:02;17.17;;;10.95;;
75649;SDS011;64245;51.282;22.494;2022-10-16T06:31:28;18.48;;;11.63;;
75649;SDS011;64245;51.282;22.494;2022-10-16T06:33:56;19.70;;;10.77;;
75649;SDS011;64245;51.282;22.494;2022-10-16T06:36:23;16.90;;;11.40;;
75649;SDS011;64245;51.282;22.494;2022-10-16T06:38:53;18.48;;;11.38;;
75649;SDS011;64245;51.282;22.494;2022-10-16T06:41:21;17.05;;;11.27;;
75649;SDS011;64245;51.282;22.494;2022-10-16T06:46:38;15.77;;;10.68;;
75649;SDS011;64245;51.282;22.494;2022-10-16T06:49:05;15.50;;;10.32;;
75649;SDS011;64245;51.282;22.494;2022-10-16T06:51:40;17.88;;;11.48;;
75649;SDS011;64245;51.282;22.494;2022-10-16T06:54:15;16.95;;;10.60;;
75649;SDS011;64245;51.282;22.494;2022-10-16T06:56:51;18.35;;;10.52;;
75649;SDS011;64245;51.282;22.494;2022-10-16T06:59:21;18.17;;;11.00;;
75649;SDS011;64245;51.282;22.494;2022-10-16T07:01:48;16.30;;;10.32;;
75649;SDS011;64245;51.282;22.494;2022-10-16T07:04:35;16.67;;;10.55;;
75649;SDS011;64245;51.282;22.494;2022-10-16T07:07:02;18.42;;;10.63;;
75649;SDS011;64245;51.282;22.494;2022-10-16T07:09:34;15.75;;;10.50;;
75649;SDS011;64245;51.282;22.494;2022-10-16T07:12:08;17.67;;;10.68;;
75649;SDS011;64245;51.282;22.494;2022-10-16T07:14:34;14.95;;;10.05;;
75649;SDS011;64245;51.282;22.494;2022-10-16T07:17:10;15.55;;;10.05;;
75649;SDS011;64245;51.282;22.494;2022-10-16T07:19:37;14.90;;;10.40;;
75649;SDS011;64245;51.282;22.494;2022-10-16T07:22:27;15.80;;;10.13;;
75649;SDS011;64245;51.282;22.494;2022-10-16T07:25:34;13.93;;;10.25;;
75649;SDS011;64245;51.282;22.494;2022-10-16T07:28:17;17.88;;;10.05;;
75649;SDS011;64245;51.282;22.494;2022-10-16T07:30:46;18.95;;;9.82;;
75649;SDS011;64245;51.282;22.494;2022-10-16T07:33:12;15.00;;;9.77;;
75649;SDS011;64245;51.282;22.494;2022-10-16T07:35:38;17.30;;;10.38;;
75649;SDS011;64245;51.282;22.494;2022-10-16T07:38:12;16.17;;;10.27;;
75649;SDS011;64245;51.282;22.494;2022-10-16T07:40:38;14.48;;;9.73;;
75649;SDS011;64245;51.282;22.494;2022-10-16T07:43:05;14.80;;;9.38;;
75649;SDS011;64245;51.282;22.494;2022-10-16T07:45:31;15.15;;;9.40;;
75649;SDS011;64245;51.282;22.494;2022-10-16T07:47:57;12.95;;;9.23;;
75649;SDS011;64245;51.282;22.494;2022-10-16T07:50:23;14.93;;;9.70;;
75649;SDS011;64245;51.282;22.494;2022-10-16T07:52:51;14.65;;;9.88;;
75649;SDS011;64245;51.282;22.494;2022-10-16T07:55:17;11.90;;;8.68;;
75649;SDS011;64245;51.282;22.494;2022-10-16T07:57:44;16.17;;;10.02;;
75649;SDS011;64245;51.282;22.494;2022-10-16T08:00:10;14.70;;;9.30;;
75649;SDS011;64245;51.282;22.494;2022-10-16T08:02:39;13.70;;;9.30;;
75649;SDS011;64245;51.282;22.494;2022-10-16T08:05:06;16.92;;;10.77;;
75649;SDS011;64245;51.282;22.494;2022-10-16T08:07:32;14.23;;;9.07;;
75649;SDS011;64245;51.282;22.494;2022-10-16T08:10:00;12.93;;;8.85;;
75649;SDS011;64245;51.282;22.494;2022-10-16T08:12:32;16.25;;;9.07;;
75649;SDS011;64245;51.282;22.494;2022-10-16T08:14:58;14.15;;;8.98;;
75649;SDS011;64245;51.282;22.494;2022-10-16T08:17:35;16.13;;;9.20;;
75649;SDS011;64245;51.282;22.494;2022-10-16T08:20:26;14.05;;;9.30;;
75649;SDS011;64245;51.282;22.494;2022-10-16T08:26:05;14.38;;;8.65;;
75649;SDS011;64245;51.282;22.494;2022-10-16T08:28:34;10.10;;;6.85;;
75649;SDS011;64245;51.282;22.494;2022-10-16T08:31:13;16.95;;;8.48;;
75649;SDS011;64245;51.282;22.494;2022-10-16T08:33:46;14.07;;;8.63;;
75649;SDS011;64245;51.282;22.494;2022-10-16T08:36:13;13.30;;;8.27;;
75649;SDS011;64245;51.282;22.494;2022-10-16T08:38:43;12.20;;;8.25;;
75649;SDS011;64245;51.282;22.494;2022-10-16T08:46:43;11.52;;;8.13;;
75649;SDS011;64245;51.282;22.494;2022-10-16T08:49:25;11.80;;;8.23;;
75649;SDS011;64245;51.282;22.494;2022-10-16T08:51:52;11.82;;;8.32;;
75649;SDS011;64245;51.282;22.494;2022-10-16T08:57:15;12.40;;;7.78;;
75649;SDS011;64245;51.282;22.494;2022-10-16T08:59:47;13.02;;;9.32;;
75649;SDS011;64245;51.282;22.494;2022-10-16T09:02:18;14.38;;;8.80;;
75649;SDS011;64245;51.282;22.494;2022-10-16T09:05:04;12.65;;;8.25;;
75649;SDS011;64245;51.282;22.494;2022-10-16T09:11:01;13.13;;;7.55;;
75649;SDS011;64245;51.282;22.494;2022-10-16T09:16:24;9.73;;;7.00;;
75649;SDS011;64245;51.282;22.494;2022-10-16T09:21:46;11.10;;;7.85;;
75649;SDS011;64245;51.282;22.494;2022-10-16T09:24:14;10.88;;;7.93;;
75649;SDS011;64245;51.282;22.494;2022-10-16T09:26:46;13.65;;;8.50;;
75649;SDS011;64245;51.282;22.494;2022-10-16T09:29:20;10.45;;;7.60;;
75649;SDS011;64245;51.282;22.494;2022-10-16T09:31:50;10.38;;;8.10;;
75649;SDS011;64245;51.282;22.494;2022-10-16T09:36:55;10.05;;;7.50;;
75649;SDS011;64245;51.282;22.494;2022-10-16T09:39:25;10.80;;;6.82;;
75649;SDS011;64245;51.282;22.494;2022-10-16T09:42:27;10.88;;;8.02;;
75649;SDS011;64245;51.282;22.494;2022-10-16T09:45:19;10.57;;;8.35;;
75649;SDS011;64245;51.282;22.494;2022-10-16T09:48:10;10.40;;;7.05;;
75649;SDS011;64245;51.282;22.494;2022-10-16T09:50:43;10.30;;;7.57;;
75649;SDS011;64245;51.282;22.494;2022-10-16T09:53:38;9.85;;;7.30;;
75649;SDS011;64245;51.282;22.494;2022-10-16T09:56:10;11.55;;;7.45;;
75649;SDS011;64245;51.282;22.494;2022-10-16T09:58:49;11.90;;;7.75;;
75649;SDS011;64245;51.282;22.494;2022-10-16T10:01:20;10.73;;;7.15;;
75649;SDS011;64245;51.282;22.494;2022-10-16T10:04:00;10.88;;;7.45;;
75649;SDS011;64245;51.282;22.494;2022-10-16T10:06:29;11.75;;;7.63;;
75649;SDS011;64245;51.282;22.494;2022-10-16T10:09:03;13.45;;;8.18;;
75649;SDS011;64245;51.282;22.494;2022-10-16T10:12:00;11.70;;;6.72;;
75649;SDS011;64245;51.282;22.494;2022-10-16T10:14:31;11.77;;;8.50;;
75649;SDS011;64245;51.282;22.494;2022-10-16T10:22:27;11.98;;;8.18;;
75649;SDS011;64245;51.282;22.494;2022-10-16T10:30:15;12.15;;;7.60;;
75649;SDS011;64245;51.282;22.494;2022-10-16T10:32:52;11.45;;;8.13;;
75649;SDS011;64245;51.282;22.494;2022-10-16T10:35:32;12.02;;;8.25;;
75649;SDS011;64245;51.282;22.494;2022-10-16T10:38:29;10.98;;;7.43;;
75649;SDS011;64245;51.282;22.494;2022-10-16T10:51:00;11.38;;;7.68;;
75649;SDS011;64245;51.282;22.494;2022-10-16T10:53:36;11.23;;;7.78;;
75649;SDS011;64245;51.282;22.494;2022-10-16T11:01:50;11.50;;;8.05;;
75649;SDS011;64245;51.282;22.494;2022-10-16T11:07:30;10.93;;;7.65;;
75649;SDS011;64245;51.282;22.494;2022-10-16T11:12:55;10.80;;;7.22;;
75649;SDS011;64245;51.282;22.494;2022-10-16T11:15:40;10.32;;;6.95;;
75649;SDS011;64245;51.282;22.494;2022-10-16T11:18:51;9.27;;;7.28;;
75649;SDS011;64245;51.282;22.494;2022-10-16T11:21:06;13.30;;;7.38;;
75649;SDS011;64245;51.282;22.494;2022-10-16T11:26:16;15.30;;;8.18;;
75649;SDS011;64245;51.282;22.494;2022-10-16T11:28:51;9.95;;;7.50;;
75649;SDS011;64245;51.282;22.494;2022-10-16T11:34:34;10.40;;;7.18;;
75649;SDS011;64245;51.282;22.494;2022-10-16T11:37:12;10.40;;;7.75;;
75649;SDS011;64245;51.282;22.494;2022-10-16T11:39:42;11.60;;;7.85;;
75649;SDS011;64245;51.282;22.494;2022-10-16T11:42:21;10.38;;;7.63;;
75649;SDS011;64245;51.282;22.494;2022-10-16T11:48:02;10.27;;;7.43;;
75649;SDS011;64245;51.282;22.494;2022-10-16T11:53:44;10.88;;;7.10;;
75649;SDS011;64245;51.282;22.494;2022-10-16T11:56:26;10.82;;;7.18;;
75649;SDS011;64245;51.282;22.494;2022-10-16T12:04:44;9.68;;;5.82;;
75649;SDS011;64245;51.282;22.494;2022-10-16T12:07:21;10.25;;;7.45;;
75649;SDS011;64245;51.282;22.494;2022-10-16T12:09:53;11.65;;;7.43;;
75649;SDS011;64245;51.282;22.494;2022-10-16T12:12:26;10.13;;;7.63;;
75649;SDS011;64245;51.282;22.494;2022-10-16T12:15:15;9.93;;;7.00;;
75649;SDS011;64245;51.282;22.494;2022-10-16T12:17:46;17.42;;;7.50;;
75649;SDS011;64245;51.282;22.494;2022-10-16T12:25:53;10.57;;;8.35;;
75649;SDS011;64245;51.282;22.494;2022-10-16T12:28:26;8.77;;;6.70;;
75649;SDS011;64245;51.282;22.494;2022-10-16T12:31:03;11.70;;;7.38;;
75649;SDS011;64245;51.282;22.494;2022-10-16T12:33:35;10.18;;;7.75;;
75649;SDS011;64245;51.282;22.494;2022-10-16T12:36:13;9.60;;;6.80;;
75649;SDS011;64245;51.282;22.494;2022-10-16T12:38:48;9.00;;;7.03;;
75649;SDS011;64245;51.282;22.494;2022-10-16T12:44:24;12.30;;;7.93;;
75649;SDS011;64245;51.282;22.494;2022-10-16T12:46:51;12.15;;;7.22;;
75649;SDS011;64245;51.282;22.494;2022-10-16T12:49:31;12.30;;;7.93;;
75649;SDS011;64245;51.282;22.494;2022-10-16T12:52:01;11.13;;;7.85;;
75649;SDS011;64245;51.282;22.494;2022-10-16T12:54:35;9.25;;;7.30;;
75649;SDS011;64245;51.282;22.494;2022-10-16T13:02:22;11.80;;;7.07;;
75649;SDS011;64245;51.282;22.494;2022-10-16T13:12:01;12.65;;;7.78;;
75649;SDS011;64245;51.282;22.494;2022-10-16T13:17:20;11.65;;;6.88;;
75649;SDS011;64245;51.282;22.494;2022-10-16T13:22:55;10.02;;;7.38;;
75649;SDS011;64245;51.282;22.494;2022-10-16T13:28:25;11.23;;;7.15;;
75649;SDS011;64245;51.282;22.494;2022-10-16T13:30:55;9.23;;;6.90;;
75649;SDS011;64245;51.282;22.494;2022-10-16T13:33:34;10.40;;;7.50;;
75649;SDS011;64245;51.282;22.494;2022-10-16T13:36:03;9.25;;;6.60;;
75649;SDS011;64245;51.282;22.494;2022-10-16T13:38:31;8.48;;;7.13;;
75649;SDS011;64245;51.282;22.494;2022-10-16T13:46:11;8.57;;;6.55;;
75649;SDS011;64245;51.282;22.494;2022-10-16T13:48:41;9.98;;;6.57;;
75649;SDS011;64245;51.282;22.494;2022-10-16T13:51:14;10.93;;;7.18;;
75649;SDS011;64245;51.282;22.494;2022-10-16T13:53:42;9.35;;;6.85;;
75649;SDS011;64245;51.282;22.494;2022-10-16T13:56:16;10.65;;;7.63;;
75649;SDS011;64245;51.282;22.494;2022-10-16T13:58:45;8.63;;;6.85;;
75649;SDS011;64245;51.282;22.494;2022-10-16T14:01:15;9.90;;;6.75;;
75649;SDS011;64245;51.282;22.494;2022-10-16T14:03:45;8.32;;;6.72;;
75649;SDS011;64245;51.282;22.494;2022-10-16T14:06:16;9.13;;;7.03;;
75649;SDS011;64245;51.282;22.494;2022-10-16T14:08:49;9.25;;;6.30;;
75649;SDS011;64245;51.282;22.494;2022-10-16T14:11:25;10.32;;;7.05;;
75649;SDS011;64245;51.282;22.494;2022-10-16T14:13:52;10.70;;;6.75;;
75649;SDS011;64245;51.282;22.494;2022-10-16T14:16:23;10.52;;;6.85;;
75649;SDS011;64245;51.282;22.494;2022-10-16T14:19:05;9.95;;;6.85;;
75649;SDS011;64245;51.282;22.494;2022-10-16T14:21:33;9.25;;;6.38;;
75649;SDS011;64245;51.282;22.494;2022-10-16T14:24:10;9.45;;;6.57;;
75649;SDS011;64245;51.282;22.494;2022-10-16T14:26:41;9.55;;;6.78;;
75649;SDS011;64245;51.282;22.494;2022-10-16T14:29:13;9.45;;;6.57;;
75649;SDS011;64245;51.282;22.494;2022-10-16T14:31:53;9.10;;;6.68;;
75649;SDS011;64245;51.282;22.494;2022-10-16T14:37:01;11.60;;;6.85;;
75649;SDS011;64245;51.282;22.494;2022-10-16T14:39:51;10.27;;;7.05;;
75649;SDS011;64245;51.282;22.494;2022-10-16T14:42:39;8.45;;;5.97;;
75649;SDS011;64245;51.282;22.494;2022-10-16T14:45:11;9.38;;;6.40;;
75649;SDS011;64245;51.282;22.494;2022-10-16T14:47:37;9.50;;;6.30;;
75649;SDS011;64245;51.282;22.494;2022-10-16T14:50:15;8.82;;;6.75;;
75649;SDS011;64245;51.282;22.494;2022-10-16T14:52:51;10.00;;;6.65;;
75649;SDS011;64245;51.282;22.494;2022-10-16T14:55:20;10.43;;;7.10;;
75649;SDS011;64245;51.282;22.494;2022-10-16T14:57:47;13.02;;;6.53;;
75649;SDS011;64245;51.282;22.494;2022-10-16T15:00:22;9.48;;;6.43;;
75649;SDS011;64245;51.282;22.494;2022-10-16T15:02:49;12.57;;;7.22;;
75649;SDS011;64245;51.282;22.494;2022-10-16T15:05:20;9.65;;;7.00;;
75649;SDS011;64245;51.282;22.494;2022-10-16T15:07:48;11.60;;;7.00;;
75649;SDS011;64245;51.282;22.494;2022-10-16T15:10:17;11.52;;;7.28;;
75649;SDS011;64245;51.282;22.494;2022-10-16T15:12:43;9.70;;;6.97;;
75649;SDS011;64245;51.282;22.494;2022-10-16T15:17:48;11.05;;;7.20;;
75649;SDS011;64245;51.282;22.494;2022-10-16T15:20:34;11.95;;;7.13;;
75649;SDS011;64245;51.282;22.494;2022-10-16T15:23:06;10.85;;;6.93;;
75649;SDS011;64245;51.282;22.494;2022-10-16T15:25:45;14.77;;;7.15;;
75649;SDS011;64245;51.282;22.494;2022-10-16T15:28:18;11.60;;;7.07;;
75649;SDS011;64245;51.282;22.494;2022-10-16T15:30:45;13.63;;;7.43;;
75649;SDS011;64245;51.282;22.494;2022-10-16T15:33:19;9.98;;;6.63;;
75649;SDS011;64245;51.282;22.494;2022-10-16T15:35:58;11.85;;;7.05;;
75649;SDS011;64245;51.282;22.494;2022-10-16T15:38:24;11.65;;;7.72;;
75649;SDS011;64245;51.282;22.494;2022-10-16T15:40:51;9.57;;;7.15;;
75649;SDS011;64245;51.282;22.494;2022-10-16T15:43:20;10.85;;;8.10;;
75649;SDS011;64245;51.282;22.494;2022-10-16T15:48:45;12.85;;;7.82;;
75649;SDS011;64245;51.282;22.494;2022-10-16T15:51:12;11.05;;;7.07;;
75649;SDS011;64245;51.282;22.494;2022-10-16T15:53:37;11.40;;;7.93;;
75649;SDS011;64245;51.282;22.494;2022-10-16T15:56:04;13.85;;;8.30;;
75649;SDS011;64245;51.282;22.494;2022-10-16T15:58:37;10.48;;;7.78;;
75649;SDS011;64245;51.282;22.494;2022-10-16T16:01:04;12.43;;;8.20;;
75649;SDS011;64245;51.282;22.494;2022-10-16T16:03:31;15.82;;;9.02;;
75649;SDS011;64245;51.282;22.494;2022-10-16T16:05:57;12.60;;;7.75;;
75649;SDS011;64245;51.282;22.494;2022-10-16T16:08:34;10.80;;;7.97;;
75649;SDS011;64245;51.282;22.494;2022-10-16T16:11:01;13.57;;;7.53;;
75649;SDS011;64245;51.282;22.494;2022-10-16T16:13:33;12.52;;;8.32;;
75649;SDS011;64245;51.282;22.494;2022-10-16T16:15:59;12.07;;;7.88;;
75649;SDS011;64245;51.282;22.494;2022-10-16T16:18:25;12.20;;;9.10;;
75649;SDS011;64245;51.282;22.494;2022-10-16T16:20:54;15.02;;;8.98;;
75649;SDS011;64245;51.282;22.494;2022-10-16T16:23:25;14.05;;;8.88;;
75649;SDS011;64245;51.282;22.494;2022-10-16T16:26:05;11.65;;;8.52;;
75649;SDS011;64245;51.282;22.494;2022-10-16T16:29:02;13.20;;;8.98;;
75649;SDS011;64245;51.282;22.494;2022-10-16T16:31:30;14.27;;;9.23;;
75649;SDS011;64245;51.282;22.494;2022-10-16T16:33:58;11.18;;;7.82;;
75649;SDS011;64245;51.282;22.494;2022-10-16T16:37:04;14.02;;;9.23;;
75649;SDS011;64245;51.282;22.494;2022-10-16T16:39:30;12.18;;;8.65;;
75649;SDS011;64245;51.282;22.494;2022-10-16T16:41:59;14.73;;;9.13;;
75649;SDS011;64245;51.282;22.494;2022-10-16T16:44:24;14.05;;;8.68;;
75649;SDS011;64245;51.282;22.494;2022-10-16T16:46:51;13.38;;;8.02;;
75649;SDS011;64245;51.282;22.494;2022-10-16T16:49:18;15.02;;;9.05;;
75649;SDS011;64245;51.282;22.494;2022-10-16T16:51:57;12.13;;;8.60;;
75649;SDS011;64245;51.282;22.494;2022-10-16T16:54:26;12.50;;;8.18;;
75649;SDS011;64245;51.282;22.494;2022-10-16T16:56:52;16.40;;;9.57;;